»·PEaware :: N732SG KSNA-KWHP

N732SG :: KSNA-KWHP

FLIGHT INFORMATION

Flight Status: Arrived
Operator: Privately registered:
United States
More flights under this callsign
Pilot: Scott G. (88)
Aircraft: CESSNA 172 SKYHAWK
(C172)
More flights by this aircraft type
Origin: KSNA John Wayne-Orange Co
United States
Destination: KWHP Whiteman
United States
More flights between these airports :: More routes between these airports
Route: SLI V23 POPPR SMO125 SMO SMO317 CANOG
File this flight plan on PilotEdge
Remarks:
Altitude:
(Current/Filed)
4,000ft
Speed:
(Current/Filed)
110kts
Departed: 12-May-17 09:47 AM
Arrived: 12-May-17 10:23 AM
Distance/Time
Traveled:
44nm/0:36
Distance/Time
To Go:
Arrived

Flight Plot

Page will automatically refresh every two minutes.


Map Options




Map Legend


Flown Route
Filed Route
Departure Airport
Arrival Airport
Navaid (VOR, NDB)
Fix

Horizontal Profiles

Position Reports

Time Latitude Longitude Heading Altitude Ground
Speed
12-May-17 09:36 33.675539 -117.871611 218 60ft 0kts
12-May-17 09:37 33.675539 -117.871611 218 60ft 0kts
12-May-17 09:38 33.675539 -117.871611 218 60ft 0kts
12-May-17 09:39 33.675539 -117.871611 218 60ft 0kts
12-May-17 09:40 33.675539 -117.871611 218 60ft 0kts
12-May-17 09:41 33.675187 -117.871363 128 60ft 0kts
12-May-17 09:42 33.675187 -117.871363 128 60ft 0kts
12-May-17 09:43 33.675123 -117.871267 129 60ft 3kts
12-May-17 09:44 33.677194 -117.869395 25 60ft 20kts
12-May-17 09:45 33.681197 -117.866413 115 60ft 0kts
12-May-17 09:46 33.681197 -117.866413 115 60ft 0kts
12-May-17 09:47 33.681197 -117.866413 115 60ft 0kts
12-May-17 09:48 33.680620 -117.865784 193 60ft 17kts
12-May-17 09:49 33.667249 -117.875159 228 710ft 69kts
12-May-17 09:50 33.653870 -117.893026 229 1576ft 83kts
12-May-17 09:51 33.636569 -117.917308 230 2029ft 111kts
12-May-17 09:52 33.620209 -117.943580 274 2809ft 87kts
12-May-17 09:53 33.639351 -117.956505 340 3637ft 89kts
12-May-17 09:54 33.658528 -117.976644 301 4025ft 112kts
12-May-17 09:55 33.676086 -118.008548 304 4018ft 113kts
12-May-17 09:56 33.693926 -118.039059 305 4019ft 111kts
12-May-17 09:57 33.711827 -118.069162 306 4019ft 112kts
12-May-17 09:58 33.730094 -118.099726 306 4019ft 113kts
12-May-17 09:59 33.748389 -118.130315 306 4019ft 113kts
12-May-17 10:00 33.765573 -118.159049 306 4019ft 113kts
12-May-17 10:01 33.783802 -118.189500 306 4019ft 113kts
12-May-17 10:02 33.799854 -118.216353 306 4019ft 112kts
12-May-17 10:03 33.817982 -118.246797 305 4019ft 112kts
12-May-17 10:04 33.836023 -118.276973 305 4019ft 111kts
12-May-17 10:05 33.852803 -118.297931 317 4019ft 111kts
12-May-17 10:06 33.872394 -118.317907 320 4019ft 112kts
12-May-17 10:07 33.896180 -118.341800 320 4019ft 112kts
12-May-17 10:08 33.919898 -118.365622 320 4019ft 111kts
12-May-17 10:09 33.943526 -118.389374 319 4017ft 111kts
12-May-17 10:10 33.967235 -118.413199 319 4015ft 111kts
12-May-17 10:11 33.990838 -118.436997 318 4015ft 111kts
12-May-17 10:12 34.015493 -118.459683 327 4015ft 113kts
12-May-17 10:13 34.043164 -118.477703 329 4014ft 114kts
12-May-17 10:14 34.071126 -118.495721 328 4014ft 115kts
12-May-17 10:15 34.099185 -118.513803 329 3996ft 116kts
12-May-17 10:16 34.125480 -118.530752 329 3994ft 114kts
12-May-17 10:17 34.154671 -118.536207 22 3992ft 118kts
12-May-17 10:18 34.171925 -118.526738 21 3991ft 117kts
12-May-17 10:19 34.201418 -118.510566 22 3991ft 117kts
12-May-17 10:20 34.233572 -118.493256 22 3134ft 129kts
12-May-17 10:21 34.264421 -118.475833 44 2040ft 123kts
12-May-17 10:22 34.285022 -118.453176 48 1620ft 90kts
12-May-17 10:23 34.276077 -118.430183 131 1417ft 79kts
12-May-17 10:24 34.260613 -118.414832 140 1004ft 56kts
12-May-17 10:25 34.259517 -118.412953 49 1004ft 0kts
12-May-17 10:26 34.259711 -118.412751 33 1004ft 7kts
12-May-17 10:27 34.259570 -118.412128 283 1004ft 0kts

Navigation Log

Ident Type
Flight plan parsing failed, navigation log unavailable